sensor_id;sensor_type;location;lat;lon;timestamp;pressure;altitude;pressure_sealevel;temperature;humidity
37892;BME280;45797;47.466;9.486;2023-02-02T00:05:03;96715.13;;;6.93;56.21
37892;BME280;45797;47.466;9.486;2023-02-02T00:10:04;96715.19;;;6.92;56.52
37892;BME280;45797;47.466;9.486;2023-02-02T00:15:04;96708.28;;;6.91;56.59
37892;BME280;45797;47.466;9.486;2023-02-02T00:20:05;96699.63;;;6.90;56.19
37892;BME280;45797;47.466;9.486;2023-02-02T00:25:07;96700.69;;;6.86;56.52
37892;BME280;45797;47.466;9.486;2023-02-02T00:30:11;96684.47;;;6.79;56.47
37892;BME280;45797;47.466;9.486;2023-02-02T00:35:23;96683.03;;;6.72;56.61
37892;BME280;45797;47.466;9.486;2023-02-02T00:40:29;96665.69;;;6.73;56.52
37892;BME280;45797;47.466;9.486;2023-02-02T00:45:29;96664.94;;;6.69;56.72
37892;BME280;45797;47.466;9.486;2023-02-02T00:50:41;96651.22;;;6.66;56.85
37892;BME280;45797;47.466;9.486;2023-02-02T00:55:51;96652.13;;;6.65;56.58
37892;BME280;45797;47.466;9.486;2023-02-02T01:00:52;96666.78;;;6.67;57.04
37892;BME280;45797;47.466;9.486;2023-02-02T01:05:54;96654.38;;;6.72;56.80
37892;BME280;45797;47.466;9.486;2023-02-02T01:10:58;96647.38;;;6.74;56.67
37892;BME280;45797;47.466;9.486;2023-02-02T01:16:02;96643.72;;;6.78;56.65
37892;BME280;45797;47.466;9.486;2023-02-02T01:21:11;96664.56;;;6.78;56.74
37892;BME280;45797;47.466;9.486;2023-02-02T01:26:12;96658.38;;;6.81;56.94
37892;BME280;45797;47.466;9.486;2023-02-02T01:31:16;96675.63;;;6.83;56.49
37892;BME280;45797;47.466;9.486;2023-02-02T01:36:21;96646.06;;;6.84;57.01
37892;BME280;45797;47.466;9.486;2023-02-02T01:41:30;96651.41;;;6.81;56.41
37892;BME280;45797;47.466;9.486;2023-02-02T01:46:35;96639.09;;;6.85;56.75
37892;BME280;45797;47.466;9.486;2023-02-02T01:51:57;96650.69;;;6.78;56.39
37892;BME280;45797;47.466;9.486;2023-02-02T01:57:08;96664.47;;;6.80;56.50
37892;BME280;45797;47.466;9.486;2023-02-02T02:02:13;96640.97;;;6.81;56.75
37892;BME280;45797;47.466;9.486;2023-02-02T02:07:15;96649.72;;;6.80;56.64
37892;BME280;45797;47.466;9.486;2023-02-02T02:12:15;96654.22;;;6.77;56.80
37892;BME280;45797;47.466;9.486;2023-02-02T02:35:03;96647.63;;;6.68;56.78
37892;BME280;45797;47.466;9.486;2023-02-02T02:45:26;96644.78;;;6.74;57.12
37892;BME280;45797;47.466;9.486;2023-02-02T02:50:41;96656.16;;;6.72;57.23
37892;BME280;45797;47.466;9.486;2023-02-02T02:55:48;96639.56;;;6.74;56.73
37892;BME280;45797;47.466;9.486;2023-02-02T03:01:05;96625.66;;;6.75;57.28
37892;BME280;45797;47.466;9.486;2023-02-02T03:06:22;96640.50;;;6.73;56.76
37892;BME280;45797;47.466;9.486;2023-02-02T03:11:41;96646.47;;;6.75;56.95
37892;BME280;45797;47.466;9.486;2023-02-02T03:16:52;96649.91;;;6.76;57.27
37892;BME280;45797;47.466;9.486;2023-02-02T03:21:55;96661.78;;;6.83;57.48
37892;BME280;45797;47.466;9.486;2023-02-02T03:26:57;96671.34;;;6.82;57.32
37892;BME280;45797;47.466;9.486;2023-02-02T03:31:58;96680.25;;;6.77;57.06
37892;BME280;45797;47.466;9.486;2023-02-02T03:37:00;96685.31;;;6.80;57.45
37892;BME280;45797;47.466;9.486;2023-02-02T03:42:01;96681.88;;;6.79;57.26
37892;BME280;45797;47.466;9.486;2023-02-02T03:47:01;96691.56;;;6.76;57.52
37892;BME280;45797;47.466;9.486;2023-02-02T03:52:02;96694.09;;;6.77;57.07
37892;BME280;45797;47.466;9.486;2023-02-02T03:57:14;96724.56;;;6.75;57.52
37892;BME280;45797;47.466;9.486;2023-02-02T04:02:15;96706.59;;;6.69;57.88
37892;BME280;45797;47.466;9.486;2023-02-02T04:07:24;96722.78;;;6.55;58.25
37892;BME280;45797;47.466;9.486;2023-02-02T04:12:27;96699.69;;;6.48;58.45
37892;BME280;45797;47.466;9.486;2023-02-02T04:17:29;96698.31;;;6.39;58.81
37892;BME280;45797;47.466;9.486;2023-02-02T04:22:32;96668.31;;;6.30;58.70
37892;BME280;45797;47.466;9.486;2023-02-02T04:27:38;96698.00;;;6.25;59.07
37892;BME280;45797;47.466;9.486;2023-02-02T04:32:39;96692.16;;;6.20;59.36
37892;BME280;45797;47.466;9.486;2023-02-02T04:37:40;96673.94;;;6.20;59.23
37892;BME280;45797;47.466;9.486;2023-02-02T04:42:42;96719.84;;;6.21;59.41
37892;BME280;45797;47.466;9.486;2023-02-02T04:47:56;96700.72;;;6.22;59.08
37892;BME280;45797;47.466;9.486;2023-02-02T04:52:56;96704.91;;;6.26;59.74
37892;BME280;45797;47.466;9.486;2023-02-02T04:58:04;96710.69;;;6.33;58.73
37892;BME280;45797;47.466;9.486;2023-02-02T05:03:06;96708.03;;;6.34;59.17
37892;BME280;45797;47.466;9.486;2023-02-02T05:08:06;96690.66;;;6.35;58.84
37892;BME280;45797;47.466;9.486;2023-02-02T05:13:14;96695.84;;;6.36;59.00
37892;BME280;45797;47.466;9.486;2023-02-02T05:18:15;96677.56;;;6.38;59.29
37892;BME280;45797;47.466;9.486;2023-02-02T05:23:18;96682.69;;;6.39;59.38
37892;BME280;45797;47.466;9.486;2023-02-02T05:28:29;96686.00;;;6.43;59.40
37892;BME280;45797;47.466;9.486;2023-02-02T05:33:29;96679.78;;;6.47;59.04
37892;BME280;45797;47.466;9.486;2023-02-02T05:38:31;96664.03;;;6.50;59.08
37892;BME280;45797;47.466;9.486;2023-02-02T05:43:35;96665.59;;;6.54;58.58
37892;BME280;45797;47.466;9.486;2023-02-02T05:48:36;96682.72;;;6.59;58.90
37892;BME280;45797;47.466;9.486;2023-02-02T05:53:38;96692.13;;;6.62;58.69
37892;BME280;45797;47.466;9.486;2023-02-02T05:58:38;96709.44;;;6.63;58.67
37892;BME280;45797;47.466;9.486;2023-02-02T06:03:39;96708.50;;;6.66;58.93
37892;BME280;45797;47.466;9.486;2023-02-02T06:08:42;96714.53;;;6.66;59.30
37892;BME280;45797;47.466;9.486;2023-02-02T06:13:44;96718.16;;;6.62;59.10
37892;BME280;45797;47.466;9.486;2023-02-02T06:18:46;96730.25;;;6.63;59.13
37892;BME280;45797;47.466;9.486;2023-02-02T06:23:47;96738.28;;;6.58;59.62
37892;BME280;45797;47.466;9.486;2023-02-02T06:28:59;96717.44;;;6.58;59.24
37892;BME280;45797;47.466;9.486;2023-02-02T06:34:05;96726.78;;;6.64;59.14
37892;BME280;45797;47.466;9.486;2023-02-02T06:39:06;96735.47;;;6.63;59.30
37892;BME280;45797;47.466;9.486;2023-02-02T06:44:08;96747.59;;;6.64;59.34
37892;BME280;45797;47.466;9.486;2023-02-02T06:49:08;96748.31;;;6.68;58.85
37892;BME280;45797;47.466;9.486;2023-02-02T06:54:14;96765.69;;;6.67;59.21
37892;BME280;45797;47.466;9.486;2023-02-02T06:59:15;96760.34;;;6.70;58.72
37892;BME280;45797;47.466;9.486;2023-02-02T07:04:19;96775.72;;;6.76;59.02
37892;BME280;45797;47.466;9.486;2023-02-02T07:09:19;96774.03;;;6.75;59.05
37892;BME280;45797;47.466;9.486;2023-02-02T07:14:20;96772.00;;;6.82;58.92
37892;BME280;45797;47.466;9.486;2023-02-02T07:19:21;96774.50;;;6.85;58.85
37892;BME280;45797;47.466;9.486;2023-02-02T07:24:24;96776.13;;;6.87;59.00
37892;BME280;45797;47.466;9.486;2023-02-02T07:29:37;96787.38;;;6.88;58.76
37892;BME280;45797;47.466;9.486;2023-02-02T07:34:38;96800.31;;;6.90;58.88
37892;BME280;45797;47.466;9.486;2023-02-02T07:39:45;96797.66;;;6.91;58.63
37892;BME280;45797;47.466;9.486;2023-02-02T07:44:47;96792.34;;;6.94;58.71
37892;BME280;45797;47.466;9.486;2023-02-02T07:50:02;96802.16;;;6.87;59.13
37892;BME280;45797;47.466;9.486;2023-02-02T07:55:03;96801.16;;;6.90;58.66
37892;BME280;45797;47.466;9.486;2023-02-02T08:00:14;96788.81;;;6.95;59.07
37892;BME280;45797;47.466;9.486;2023-02-02T08:05:14;96787.84;;;6.98;58.96
37892;BME280;45797;47.466;9.486;2023-02-02T08:10:17;96784.94;;;7.05;58.60
37892;BME280;45797;47.466;9.486;2023-02-02T08:15:20;96789.88;;;7.11;58.28
37892;BME280;45797;47.466;9.486;2023-02-02T08:20:20;96795.13;;;7.10;58.44
37892;BME280;45797;47.466;9.486;2023-02-02T08:25:29;96805.25;;;7.18;57.97
37892;BME280;45797;47.466;9.486;2023-02-02T08:30:34;96800.03;;;7.18;58.56
37892;BME280;45797;47.466;9.486;2023-02-02T08:36:02;96805.50;;;7.11;58.38
37892;BME280;45797;47.466;9.486;2023-02-02T08:41:11;96810.44;;;7.18;58.36
37892;BME280;45797;47.466;9.486;2023-02-02T08:46:14;96817.88;;;7.27;58.33
37892;BME280;45797;47.466;9.486;2023-02-02T08:51:22;96828.13;;;7.31;58.39
37892;BME280;45797;47.466;9.486;2023-02-02T08:56:24;96821.06;;;7.33;58.35
37892;BME280;45797;47.466;9.486;2023-02-02T09:01:33;96841.00;;;7.34;57.90
37892;BME280;45797;47.466;9.486;2023-02-02T09:06:52;96835.66;;;7.37;57.62
37892;BME280;45797;47.466;9.486;2023-02-02T09:11:53;96847.59;;;7.43;57.85
37892;BME280;45797;47.466;9.486;2023-02-02T09:16:59;96842.31;;;7.44;57.84
37892;BME280;45797;47.466;9.486;2023-02-02T09:22:02;96836.84;;;7.51;57.85
37892;BME280;45797;47.466;9.486;2023-02-02T09:27:03;96827.06;;;7.56;58.07
37892;BME280;45797;47.466;9.486;2023-02-02T09:32:13;96825.88;;;7.63;57.46
37892;BME280;45797;47.466;9.486;2023-02-02T09:37:35;96817.06;;;7.65;56.90
37892;BME280;45797;47.466;9.486;2023-02-02T09:48:59;96842.19;;;7.68;57.17
37892;BME280;45797;47.466;9.486;2023-02-02T09:54:35;96854.16;;;7.72;57.07
37892;BME280;45797;47.466;9.486;2023-02-02T09:59:51;96863.59;;;7.74;57.37
37892;BME280;45797;47.466;9.486;2023-02-02T10:05:21;96870.25;;;7.82;56.86
37892;BME280;45797;47.466;9.486;2023-02-02T10:10:39;96872.66;;;7.86;57.21
37892;BME280;45797;47.466;9.486;2023-02-02T10:15:57;96886.09;;;7.97;56.95
37892;BME280;45797;47.466;9.486;2023-02-02T10:26:59;96885.09;;;8.00;56.71
37892;BME280;45797;47.466;9.486;2023-02-02T10:48:48;96920.00;;;7.97;56.87
37892;BME280;45797;47.466;9.486;2023-02-02T10:53:52;96919.94;;;7.99;56.96
37892;BME280;45797;47.466;9.486;2023-02-02T10:59:05;96919.94;;;7.99;56.43
37892;BME280;45797;47.466;9.486;2023-02-02T11:04:08;96908.75;;;7.95;57.21
37892;BME280;45797;47.466;9.486;2023-02-02T11:09:37;96901.22;;;7.89;57.17
37892;BME280;45797;47.466;9.486;2023-02-02T11:20:31;96882.81;;;7.92;56.91
37892;BME280;45797;47.466;9.486;2023-02-02T11:25:38;96868.53;;;8.01;56.80
37892;BME280;45797;47.466;9.486;2023-02-02T11:30:40;96874.41;;;8.06;56.81
37892;BME280;45797;47.466;9.486;2023-02-02T11:35:52;96880.06;;;8.16;56.92
37892;BME280;45797;47.466;9.486;2023-02-02T11:41:07;96870.09;;;8.24;56.76
37892;BME280;45797;47.466;9.486;2023-02-02T11:46:27;96885.72;;;8.25;56.47
37892;BME280;45797;47.466;9.486;2023-02-02T11:51:38;96887.75;;;8.19;56.74
37892;BME280;45797;47.466;9.486;2023-02-02T11:56:38;96894.13;;;8.12;56.95
37892;BME280;45797;47.466;9.486;2023-02-02T12:01:39;96883.69;;;8.12;56.84
37892;BME280;45797;47.466;9.486;2023-02-02T12:06:39;96897.53;;;8.14;56.93
37892;BME280;45797;47.466;9.486;2023-02-02T12:12:08;96888.91;;;8.12;56.93
37892;BME280;45797;47.466;9.486;2023-02-02T12:27:39;96850.22;;;8.21;56.61
37892;BME280;45797;47.466;9.486;2023-02-02T12:38:58;96848.19;;;8.28;57.07
37892;BME280;45797;47.466;9.486;2023-02-02T12:44:34;96858.78;;;8.25;56.35
37892;BME280;45797;47.466;9.486;2023-02-02T12:50:23;96870.25;;;8.21;56.74
37892;BME280;45797;47.466;9.486;2023-02-02T12:55:55;96863.25;;;8.21;56.73
37892;BME280;45797;47.466;9.486;2023-02-02T13:01:22;96867.78;;;8.18;56.45
37892;BME280;45797;47.466;9.486;2023-02-02T13:12:19;96893.94;;;8.16;56.54
37892;BME280;45797;47.466;9.486;2023-02-02T13:17:41;96871.09;;;8.21;56.40
37892;BME280;45797;47.466;9.486;2023-02-02T13:22:57;96861.41;;;8.23;56.46
37892;BME280;45797;47.466;9.486;2023-02-02T13:28:22;96868.56;;;8.20;56.79
37892;BME280;45797;47.466;9.486;2023-02-02T13:33:29;96873.78;;;8.20;57.29
37892;BME280;45797;47.466;9.486;2023-02-02T13:38:41;96863.34;;;8.20;56.65
37892;BME280;45797;47.466;9.486;2023-02-02T13:44:20;96874.94;;;8.13;57.09
37892;BME280;45797;47.466;9.486;2023-02-02T13:49:36;96859.19;;;8.16;57.01
37892;BME280;45797;47.466;9.486;2023-02-02T14:00:22;96862.56;;;8.18;57.05
37892;BME280;45797;47.466;9.486;2023-02-02T14:05:33;96880.69;;;8.21;56.96
37892;BME280;45797;47.466;9.486;2023-02-02T14:11:11;96899.78;;;8.21;56.92
37892;BME280;45797;47.466;9.486;2023-02-02T14:16:23;96909.25;;;8.24;56.94
37892;BME280;45797;47.466;9.486;2023-02-02T14:37:57;96911.88;;;8.03;57.62
37892;BME280;45797;47.466;9.486;2023-02-02T14:43:31;96925.00;;;8.02;57.53
37892;BME280;45797;47.466;9.486;2023-02-02T14:49:36;96932.91;;;8.00;57.76
37892;BME280;45797;47.466;9.486;2023-02-02T14:54:39;96935.38;;;8.03;57.83
37892;BME280;45797;47.466;9.486;2023-02-02T14:59:51;96915.16;;;8.09;58.09
37892;BME280;45797;47.466;9.486;2023-02-02T15:16:00;96937.72;;;8.10;57.72
37892;BME280;45797;47.466;9.486;2023-02-02T15:21:07;96944.78;;;8.08;57.83
37892;BME280;45797;47.466;9.486;2023-02-02T15:26:26;96944.19;;;8.01;57.60
37892;BME280;45797;47.466;9.486;2023-02-02T15:31:42;96955.47;;;8.01;57.91
37892;BME280;45797;47.466;9.486;2023-02-02T15:36:44;96969.28;;;8.03;57.66
37892;BME280;45797;47.466;9.486;2023-02-02T15:41:48;96968.31;;;8.06;57.93
37892;BME280;45797;47.466;9.486;2023-02-02T15:47:21;96973.66;;;8.03;58.48
37892;BME280;45797;47.466;9.486;2023-02-02T15:52:27;96987.53;;;8.03;57.98
37892;BME280;45797;47.466;9.486;2023-02-02T15:57:36;96997.28;;;8.00;57.89
37892;BME280;45797;47.466;9.486;2023-02-02T16:02:41;96980.84;;;7.98;57.84
37892;BME280;45797;47.466;9.486;2023-02-02T16:07:44;96984.28;;;7.98;57.97
37892;BME280;45797;47.466;9.486;2023-02-02T16:12:48;96990.28;;;8.00;57.75
37892;BME280;45797;47.466;9.486;2023-02-02T16:18:02;96988.66;;;7.98;57.92
37892;BME280;45797;47.466;9.486;2023-02-02T16:23:23;96986.06;;;7.98;57.93
37892;BME280;45797;47.466;9.486;2023-02-02T16:28:25;96971.25;;;7.98;58.15
37892;BME280;45797;47.466;9.486;2023-02-02T16:33:41;96970.50;;;7.95;57.81
37892;BME280;45797;47.466;9.486;2023-02-02T16:38:43;96997.50;;;7.94;58.24
37892;BME280;45797;47.466;9.486;2023-02-02T16:43:44;96991.44;;;7.93;58.53
37892;BME280;45797;47.466;9.486;2023-02-02T16:48:59;97004.56;;;7.92;57.88
37892;BME280;45797;47.466;9.486;2023-02-02T16:54:12;97010.50;;;7.95;58.38
37892;BME280;45797;47.466;9.486;2023-02-02T16:59:34;97005.34;;;7.94;58.15
37892;BME280;45797;47.466;9.486;2023-02-02T17:04:39;97027.03;;;7.96;58.42
37892;BME280;45797;47.466;9.486;2023-02-02T17:09:43;97033.88;;;7.98;58.06
37892;BME280;45797;47.466;9.486;2023-02-02T17:14:54;97025.13;;;7.99;58.28
37892;BME280;45797;47.466;9.486;2023-02-02T17:19:56;97032.03;;;8.00;58.41
37892;BME280;45797;47.466;9.486;2023-02-02T17:24:57;97044.16;;;8.01;58.51
37892;BME280;45797;47.466;9.486;2023-02-02T17:30:04;97044.41;;;7.95;58.10
37892;BME280;45797;47.466;9.486;2023-02-02T17:35:15;97065.53;;;7.89;58.35
37892;BME280;45797;47.466;9.486;2023-02-02T17:40:22;97077.81;;;7.87;58.58
37892;BME280;45797;47.466;9.486;2023-02-02T17:45:30;97084.03;;;7.83;58.76
37892;BME280;45797;47.466;9.486;2023-02-02T17:50:32;97088.47;;;7.81;59.02
37892;BME280;45797;47.466;9.486;2023-02-02T17:55:38;97083.25;;;7.81;58.88
37892;BME280;45797;47.466;9.486;2023-02-02T18:00:43;97086.84;;;7.79;58.96
37892;BME280;45797;47.466;9.486;2023-02-02T18:05:51;97099.88;;;7.79;58.93
37892;BME280;45797;47.466;9.486;2023-02-02T18:11:00;97111.25;;;7.76;58.62
37892;BME280;45797;47.466;9.486;2023-02-02T18:16:01;97098.22;;;7.76;58.66
37892;BME280;45797;47.466;9.486;2023-02-02T18:21:08;97104.25;;;7.78;58.62
37892;BME280;45797;47.466;9.486;2023-02-02T18:26:14;97093.75;;;7.80;59.08
37892;BME280;45797;47.466;9.486;2023-02-02T18:31:19;97095.38;;;7.82;58.71
37892;BME280;45797;47.466;9.486;2023-02-02T18:36:23;97097.00;;;7.85;59.12
37892;BME280;45797;47.466;9.486;2023-02-02T18:41:23;97093.44;;;7.87;58.70
37892;BME280;45797;47.466;9.486;2023-02-02T18:46:23;97096.91;;;7.88;59.02
37892;BME280;45797;47.466;9.486;2023-02-02T18:51:25;97097.69;;;7.90;58.65
37892;BME280;45797;47.466;9.486;2023-02-02T18:56:28;97089.63;;;7.96;58.71
37892;BME280;45797;47.466;9.486;2023-02-02T19:01:30;97092.16;;;7.97;59.00
37892;BME280;45797;47.466;9.486;2023-02-02T19:06:31;97107.00;;;7.95;58.74
37892;BME280;45797;47.466;9.486;2023-02-02T19:11:50;97106.06;;;7.98;58.61
37892;BME280;45797;47.466;9.486;2023-02-02T19:17:00;97113.81;;;7.99;58.87
37892;BME280;45797;47.466;9.486;2023-02-02T19:22:16;97124.25;;;7.99;58.81
37892;BME280;45797;47.466;9.486;2023-02-02T19:27:18;97125.94;;;8.00;58.66
37892;BME280;45797;47.466;9.486;2023-02-02T19:32:23;97138.91;;;8.02;58.68
37892;BME280;45797;47.466;9.486;2023-02-02T19:37:29;97130.13;;;8.05;58.84
37892;BME280;45797;47.466;9.486;2023-02-02T19:42:31;97146.63;;;8.05;58.72
37892;BME280;45797;47.466;9.486;2023-02-02T19:47:32;97138.69;;;8.08;58.57
37892;BME280;45797;47.466;9.486;2023-02-02T19:52:33;97142.94;;;8.11;58.36
37892;BME280;45797;47.466;9.486;2023-02-02T19:57:35;97140.09;;;8.17;58.36
37892;BME280;45797;47.466;9.486;2023-02-02T20:08:23;97148.16;;;8.11;58.46
37892;BME280;45797;47.466;9.486;2023-02-02T20:18:41;97143.63;;;8.14;58.52
37892;BME280;45797;47.466;9.486;2023-02-02T20:23:45;97139.25;;;8.15;58.41
37892;BME280;45797;47.466;9.486;2023-02-02T20:28:59;97136.72;;;8.13;58.31
37892;BME280;45797;47.466;9.486;2023-02-02T20:34:01;97130.66;;;8.13;58.20
37892;BME280;45797;47.466;9.486;2023-02-02T20:44:38;97142.00;;;8.12;58.33
37892;BME280;45797;47.466;9.486;2023-02-02T20:49:41;97162.88;;;8.12;57.93
37892;BME280;45797;47.466;9.486;2023-02-02T20:54:43;97170.72;;;8.12;58.22
37892;BME280;45797;47.466;9.486;2023-02-02T20:59:48;97175.94;;;8.12;57.90
37892;BME280;45797;47.466;9.486;2023-02-02T21:04:56;97189.03;;;8.10;57.91
37892;BME280;45797;47.466;9.486;2023-02-02T21:09:57;97168.16;;;8.10;57.71
37892;BME280;45797;47.466;9.486;2023-02-02T21:14:57;97181.28;;;8.09;57.95
37892;BME280;45797;47.466;9.486;2023-02-02T21:20:07;97177.94;;;8.05;58.18
37892;BME280;45797;47.466;9.486;2023-02-02T21:25:10;97170.97;;;8.06;58.22
37892;BME280;45797;47.466;9.486;2023-02-02T21:30:12;97174.47;;;8.05;58.33
37892;BME280;45797;47.466;9.486;2023-02-02T21:35:13;97169.25;;;8.05;57.96
37892;BME280;45797;47.466;9.486;2023-02-02T21:40:20;97175.31;;;8.05;57.76
37892;BME280;45797;47.466;9.486;2023-02-02T21:45:33;97171.84;;;8.05;58.04
37892;BME280;45797;47.466;9.486;2023-02-02T21:50:39;97176.19;;;8.06;58.15
37892;BME280;45797;47.466;9.486;2023-02-02T21:55:40;97171.06;;;8.02;57.99
37892;BME280;45797;47.466;9.486;2023-02-02T22:00:42;97181.41;;;8.06;58.11
37892;BME280;45797;47.466;9.486;2023-02-02T22:05:43;97170.09;;;8.05;58.13
37892;BME280;45797;47.466;9.486;2023-02-02T22:10:44;97174.38;;;8.08;57.96
37892;BME280;45797;47.466;9.486;2023-02-02T22:15:47;97175.88;;;8.13;57.48
37892;BME280;45797;47.466;9.486;2023-02-02T22:20:51;97187.97;;;8.16;57.62
37892;BME280;45797;47.466;9.486;2023-02-02T22:25:57;97196.66;;;8.15;57.57
37892;BME280;45797;47.466;9.486;2023-02-02T22:30:59;97192.38;;;8.14;57.62
37892;BME280;45797;47.466;9.486;2023-02-02T22:36:04;97181.00;;;8.15;57.47
37892;BME280;45797;47.466;9.486;2023-02-02T22:41:04;97175.09;;;8.11;57.88
37892;BME280;45797;47.466;9.486;2023-02-02T22:46:06;97188.19;;;8.10;57.48
37892;BME280;45797;47.466;9.486;2023-02-02T22:51:13;97191.72;;;8.09;57.83
37892;BME280;45797;47.466;9.486;2023-02-02T22:56:13;97179.75;;;8.03;58.40
37892;BME280;45797;47.466;9.486;2023-02-02T23:01:14;97199.72;;;8.04;58.01
37892;BME280;45797;47.466;9.486;2023-02-02T23:06:14;97210.28;;;8.01;58.11
37892;BME280;45797;47.466;9.486;2023-02-02T23:11:18;97215.56;;;7.99;58.18
37892;BME280;45797;47.466;9.486;2023-02-02T23:16:29;97235.63;;;7.97;57.47
37892;BME280;45797;47.466;9.486;2023-02-02T23:21:29;97237.34;;;7.98;58.21
37892;BME280;45797;47.466;9.486;2023-02-02T23:26:37;97239.03;;;7.99;58.08
37892;BME280;45797;47.466;9.486;2023-02-02T23:31:40;97244.97;;;8.03;57.72
37892;BME280;45797;47.466;9.486;2023-02-02T23:36:41;97227.63;;;8.02;57.96
37892;BME280;45797;47.466;9.486;2023-02-02T23:41:44;97211.19;;;8.00;57.66
37892;BME280;45797;47.466;9.486;2023-02-02T23:46:46;97209.78;;;7.91;57.93
37892;BME280;45797;47.466;9.486;2023-02-02T23:51:52;97181.22;;;7.88;57.95
37892;BME280;45797;47.466;9.486;2023-02-02T23:56:54;97185.63;;;7.86;57.97
